4OK3 weather

St Francis Hospital Heliport
Tulsa, Oklahoma, United States

Public forecast

Using degrees Fahrenheit for public forecast. Weather courtesy of forecast.io.

METAR (pilot weather report)

Closest report is Richard Lloyd Jones Jr Airport, 3.8 nm (7.1 km) WSW. Retrieved 2019/04/21 05:53 UTC (14 minutes ago):

KRVS 210553Z AUTO 15004KT 10SM CLR 17/08 A2989 RMK AO2 SLP127 T01720083 10261 20172 402670039 52003

TAF (pilot weather forecast)

Closest forecast is Richard Lloyd Jones Jr Airport, 3.8 nm (7.1 km) WSW. Retrieved 2019/04/21 06:22 UTC (0 seconds ago):

TAF KRVS 210520Z 2106/2206 19005KT P6SM SKC FM211500 18013G22KT P6SM BKN250 FM220100 18010G17KT P6SM BKN250